createdAt,value
2018-07-13T00:02:21.511Z,94966.80
2018-07-13T00:04:50.329Z,94960.95
2018-07-13T00:07:19.074Z,94965.47
2018-07-13T00:09:47.913Z,94959.59
2018-07-13T00:12:16.781Z,94958.27
2018-07-13T00:14:56.485Z,94957.98
2018-07-13T00:17:25.293Z,94956.36
2018-07-13T00:19:54.106Z,94957.96
2018-07-13T00:22:22.866Z,94958.45
2018-07-13T00:24:51.708Z,94961.11
2018-07-13T00:27:20.493Z,94956.58
2018-07-13T00:29:49.279Z,94964.51
2018-07-13T00:32:18.130Z,94961.30
2018-07-13T00:34:46.894Z,94962.07
2018-07-13T00:37:15.710Z,94963.09
2018-07-13T00:39:44.533Z,94965.22
2018-07-13T00:42:13.309Z,94960.94
2018-07-13T00:44:42.173Z,94953.23
2018-07-13T00:47:10.967Z,94951.62
2018-07-13T00:49:39.804Z,94954.52
2018-07-13T00:52:08.545Z,94953.95
2018-07-13T00:54:37.378Z,94954.45
2018-07-13T00:57:06.162Z,94957.09
2018-07-13T00:59:35.028Z,94956.31
2018-07-13T01:02:04.036Z,94963.50
2018-07-13T01:04:32.825Z,94964.05
2018-07-13T01:07:01.632Z,94958.22
2018-07-13T01:09:30.390Z,94957.96
2018-07-13T01:11:59.178Z,94959.59
2018-07-13T01:14:28.003Z,94955.07
2018-07-13T01:16:56.799Z,94953.23
2018-07-13T01:19:25.577Z,94948.41
2018-07-13T01:21:54.341Z,94950.50
2018-07-13T01:24:23.134Z,94952.04
2018-07-13T01:26:51.901Z,94950.43
2018-07-13T01:29:20.711Z,94954.70
2018-07-13T01:31:49.523Z,94950.99
2018-07-13T01:34:18.330Z,94956.55
2018-07-13T01:36:47.456Z,94959.40
2018-07-13T01:39:16.322Z,94964.17
2018-07-13T01:41:45.127Z,94956.16
2018-07-13T01:44:13.995Z,94962.52
2018-07-13T01:46:42.827Z,94956.36
2018-07-13T01:49:11.993Z,94956.08
2018-07-13T01:51:40.843Z,94959.30
2018-07-13T01:54:09.615Z,94958.02
2018-07-13T01:56:38.442Z,94959.34
2018-07-13T01:59:07.270Z,94957.73
2018-07-13T02:01:36.170Z,94958.52
2018-07-13T02:04:04.951Z,94961.16
2018-07-13T02:06:33.987Z,94961.69
2018-07-13T02:09:02.839Z,94963.27
2018-07-13T02:11:31.669Z,94964.56
2018-07-13T02:14:00.452Z,94968.81
2018-07-13T02:16:29.259Z,94970.91
2018-07-13T02:18:58.027Z,94972.77
2018-07-13T02:21:27.755Z,94968.16
2018-07-13T02:23:56.490Z,94966.80
2018-07-13T02:26:25.302Z,94972.34
2018-07-13T02:28:54.053Z,94971.78
2018-07-13T02:31:22.847Z,94970.70
2018-07-13T02:33:51.657Z,94970.14
2018-07-13T02:36:20.683Z,94976.77
2018-07-13T02:38:49.462Z,94979.42
2018-07-13T02:41:18.423Z,94972.52
2018-07-13T02:43:47.229Z,94970.67
2018-07-13T02:46:16.011Z,94977.53
2018-07-13T02:48:44.774Z,94965.77
2018-07-13T02:51:13.561Z,94966.79
2018-07-13T02:53:42.355Z,94965.46
2018-07-13T02:56:11.115Z,94965.42
2018-07-13T02:58:39.896Z,94963.30
2018-07-13T03:01:08.670Z,94964.09
2018-07-13T03:03:37.868Z,94973.93
2018-07-13T03:06:06.650Z,94969.94
2018-07-13T03:08:35.478Z,94967.03
2018-07-13T03:11:04.438Z,94966.51
2018-07-13T03:13:33.262Z,94966.30
2018-07-13T03:16:02.042Z,94963.39
2018-07-13T03:18:30.798Z,94964.23
2018-07-13T03:20:59.559Z,94966.68
2018-07-13T03:23:28.328Z,94970.42
2018-07-13T03:25:57.146Z,94974.73
2018-07-13T03:28:25.927Z,94970.52
2018-07-13T03:30:54.710Z,94968.69
2018-07-13T03:33:23.525Z,94973.83
2018-07-13T03:35:52.310Z,94974.35
2018-07-13T03:38:21.135Z,94976.23
2018-07-13T03:40:50.097Z,94971.41
2018-07-13T03:43:18.882Z,94968.25
2018-07-13T03:45:47.678Z,94973.64
2018-07-13T03:48:16.472Z,94973.41
2018-07-13T03:50:45.490Z,94974.74
2018-07-13T03:53:14.237Z,94975.83
2018-07-13T03:55:42.981Z,94977.66
2018-07-13T03:58:11.808Z,94976.11
2018-07-13T04:00:40.589Z,94979.34
2018-07-13T04:03:09.446Z,94975.91
2018-07-13T04:05:38.778Z,94980.45
2018-07-13T04:08:07.593Z,94984.00
2018-07-13T04:10:36.369Z,94984.03
2018-07-13T04:13:05.363Z,94985.63
2018-07-13T04:15:34.177Z,94980.33
2018-07-13T04:18:02.969Z,94978.80
2018-07-13T04:20:32.133Z,94978.77
2018-07-13T04:23:01.026Z,94981.44
2018-07-13T04:25:29.806Z,94979.06
2018-07-13T04:27:58.759Z,94974.56
2018-07-13T04:30:27.682Z,94975.91
2018-07-13T04:32:56.443Z,94976.72
2018-07-13T04:35:25.241Z,94975.22
2018-07-13T04:37:54.259Z,94980.34
2018-07-13T04:40:23.047Z,94978.50
2018-07-13T04:42:51.806Z,94976.16
2018-07-13T04:45:20.752Z,94971.37
2018-07-13T04:47:49.661Z,94977.87
2018-07-13T04:50:18.735Z,94973.38
2018-07-13T04:52:47.845Z,94970.75
2018-07-13T04:55:17.392Z,94972.44
2018-07-13T04:57:46.219Z,94963.84
2018-07-13T05:00:15.181Z,94969.70
2018-07-13T05:02:44.041Z,94962.98
2018-07-13T05:05:13.269Z,94962.86
2018-07-13T05:07:42.181Z,94964.18
2018-07-13T05:10:11.038Z,94965.01
2018-07-13T05:12:39.806Z,94970.34
2018-07-13T05:15:09.433Z,94969.43
2018-07-13T05:17:38.223Z,94972.55
2018-07-13T05:20:07.116Z,94965.27
2018-07-13T05:22:36.639Z,94969.16
2018-07-13T05:25:06.177Z,94969.97
2018-07-13T05:27:35.136Z,94973.58
2018-07-13T05:30:06.039Z,94969.28
2018-07-13T05:32:35.336Z,94975.42
2018-07-13T05:35:04.258Z,94977.12
2018-07-13T05:37:33.221Z,94977.16
2018-07-13T05:40:04.112Z,94973.84
2018-07-13T05:42:33.012Z,94969.77
2018-07-13T05:45:01.999Z,94968.08
2018-07-13T05:47:31.163Z,94972.27
2018-07-13T05:50:00.204Z,94973.09
2018-07-13T05:52:29.134Z,94974.77
2018-07-13T05:54:58.847Z,94979.39
2018-07-13T05:57:28.022Z,94976.66
2018-07-13T05:59:56.979Z,94979.76
2018-07-13T06:02:25.969Z,94974.70
2018-07-13T06:04:55.160Z,94987.41
2018-07-13T06:07:24.086Z,94987.77
2018-07-13T06:09:52.949Z,94981.72
2018-07-13T06:12:21.825Z,94982.94
2018-07-13T06:14:50.588Z,94979.23
2018-07-13T06:17:19.353Z,94983.80
2018-07-13T06:19:48.217Z,94989.02
2018-07-13T06:22:17.042Z,94985.84
2018-07-13T06:24:45.829Z,94988.42
2018-07-13T06:27:14.647Z,94980.00
2018-07-13T06:29:43.706Z,94978.78
2018-07-13T06:32:12.548Z,94973.22
2018-07-13T06:34:41.723Z,94983.44
2018-07-13T06:37:11.001Z,94970.24
2018-07-13T06:39:39.878Z,94968.48
2018-07-13T06:42:08.706Z,94966.06
2018-07-13T06:44:37.522Z,94965.64
2018-07-13T06:47:06.505Z,94971.91
2018-07-13T06:49:35.430Z,94965.49
2018-07-13T06:52:04.502Z,94962.41
2018-07-13T06:54:33.394Z,94961.63
2018-07-13T06:57:02.269Z,94965.67
2018-07-13T06:59:31.082Z,94975.37
2018-07-13T07:01:59.957Z,94975.11
2018-07-13T07:04:31.498Z,94972.18
2018-07-13T07:07:32.533Z,94981.19
2018-07-13T07:10:01.623Z,94985.03
2018-07-13T07:12:52.043Z,94984.07
2018-07-13T07:15:21.377Z,94987.81
2018-07-13T07:17:50.294Z,94981.58
2018-07-13T07:20:19.329Z,94984.16
2018-07-13T07:22:48.676Z,94977.97
2018-07-13T07:25:17.639Z,94976.38
2018-07-13T07:27:46.794Z,94971.64
2018-07-13T07:30:15.662Z,94965.63
2018-07-13T07:32:45.353Z,94967.31
2018-07-13T07:35:14.116Z,94973.64
2018-07-13T07:37:43.018Z,94965.89
2018-07-13T07:40:11.886Z,94967.72
2018-07-13T07:42:40.829Z,94969.52
2018-07-13T07:45:09.723Z,94974.79
2018-07-13T07:47:38.551Z,94971.09
2018-07-13T07:50:07.656Z,94965.37
2018-07-13T07:52:36.604Z,94966.32
2018-07-13T07:55:05.495Z,94970.27
2018-07-13T07:57:34.335Z,94969.14
2018-07-13T08:00:04.612Z,94966.91
2018-07-13T08:02:33.871Z,94966.91
2018-07-13T08:05:02.722Z,94976.63
2018-07-13T08:07:31.639Z,94970.56
2018-07-13T08:10:00.575Z,94970.04
2018-07-13T08:12:29.360Z,94976.00
2018-07-13T08:14:58.431Z,94971.42
2018-07-13T08:17:27.417Z,94975.47
2018-07-13T08:19:56.580Z,94970.27
2018-07-13T08:22:38.199Z,94979.83
2018-07-13T08:25:09.464Z,94974.70
2018-07-13T08:27:44.418Z,94975.06
2018-07-13T08:30:22.077Z,94974.94
2018-07-13T08:32:50.900Z,94968.59
2018-07-13T08:35:20.125Z,94967.37
2018-07-13T08:37:48.982Z,94972.61
2018-07-13T08:40:17.979Z,94964.29
2018-07-13T08:42:46.857Z,94964.19
2018-07-13T08:45:16.058Z,94965.24
2018-07-13T08:47:44.964Z,94968.46
2018-07-13T08:50:13.961Z,94967.66
2018-07-13T08:52:42.925Z,94966.61
2018-07-13T08:55:14.457Z,94968.27
2018-07-13T08:57:45.876Z,94964.81
2018-07-13T09:00:14.953Z,94965.09
2018-07-13T09:02:44.164Z,94959.53
2018-07-13T09:05:13.021Z,94962.88
2018-07-13T09:07:41.888Z,94959.16
2018-07-13T09:10:11.633Z,94962.63
2018-07-13T09:12:40.723Z,94958.23
2018-07-13T09:15:10.899Z,94959.92
2018-07-13T09:17:40.247Z,94960.09
2018-07-13T09:20:11.398Z,94957.30
2018-07-13T09:22:40.269Z,94955.20
2018-07-13T09:25:10.108Z,94957.28
2018-07-13T09:27:39.261Z,94952.63
2018-07-13T09:30:09.088Z,94952.81
2018-07-13T09:32:37.949Z,94941.20
2018-07-13T09:35:06.799Z,94938.31
2018-07-13T09:37:36.090Z,94935.46
2018-07-13T09:40:05.127Z,94931.09
2018-07-13T09:42:34.499Z,94927.80
2018-07-13T09:45:03.391Z,94929.91
2018-07-13T09:47:32.919Z,94924.52
2018-07-13T09:50:01.774Z,94929.27
2018-07-13T09:52:30.622Z,94929.11
2018-07-13T09:54:59.709Z,94926.66
2018-07-13T09:57:28.530Z,94926.31
2018-07-13T09:59:57.416Z,94923.78
2018-07-13T10:02:26.387Z,94916.92
2018-07-13T10:04:58.865Z,94914.25
2018-07-13T10:07:28.953Z,94914.18
2018-07-13T10:09:59.794Z,94909.53
2018-07-13T10:12:28.714Z,94905.55
2018-07-13T10:14:57.646Z,94905.61
2018-07-13T10:17:27.288Z,94904.06
2018-07-13T10:19:56.110Z,94902.12
2018-07-13T10:22:29.018Z,94903.97
2018-07-13T10:25:01.396Z,94899.17
2018-07-13T10:27:33.331Z,94894.65
2018-07-13T10:30:04.206Z,94902.98
2018-07-13T10:32:33.700Z,94901.34
2018-07-13T10:35:03.643Z,94890.37
2018-07-13T10:37:32.681Z,94881.95
2018-07-13T10:40:01.608Z,94879.20
2018-07-13T10:42:30.572Z,94884.13
2018-07-13T10:44:59.417Z,94891.96
2018-07-13T10:47:28.370Z,94896.86
2018-07-13T10:49:57.183Z,94895.16
2018-07-13T10:52:26.384Z,94890.38
2018-07-13T10:54:55.223Z,94894.91
2018-07-13T10:57:24.060Z,94895.15
2018-07-13T10:59:52.921Z,94895.55
2018-07-13T11:02:21.901Z,94892.56
2018-07-13T11:04:50.707Z,94895.63
2018-07-13T11:07:19.619Z,94894.20
2018-07-13T11:09:48.428Z,94892.41
2018-07-13T11:12:17.251Z,94887.16
2018-07-13T11:14:46.711Z,94893.13
2018-07-13T11:17:15.566Z,94890.33
2018-07-13T11:19:44.400Z,94881.92
2018-07-13T11:22:13.314Z,94897.44
2018-07-13T11:24:42.200Z,94885.31
2018-07-13T11:27:11.081Z,94899.23
2018-07-13T11:29:39.989Z,94883.59
2018-07-13T11:32:08.999Z,94892.88
2018-07-13T11:34:37.915Z,94896.71
2018-07-13T11:37:07.458Z,94916.06
2018-07-13T11:39:36.414Z,94932.52
2018-07-13T11:42:05.229Z,94912.59
2018-07-13T11:44:34.073Z,94925.52
2018-07-13T11:47:02.907Z,94948.03
2018-07-13T11:49:31.736Z,94926.99
2018-07-13T11:52:00.591Z,94915.56
2018-07-13T11:54:29.487Z,94922.08
2018-07-13T11:56:58.330Z,94909.02
2018-07-13T11:59:27.151Z,94902.45
2018-07-13T12:01:56.083Z,94901.52
2018-07-13T12:04:25.001Z,94898.91
2018-07-13T12:06:53.783Z,94901.63
2018-07-13T12:09:22.590Z,94909.30
2018-07-13T12:11:51.435Z,94910.13
2018-07-13T12:14:20.182Z,94910.20
2018-07-13T12:16:49.183Z,94908.59
2018-07-13T12:19:18.000Z,94909.84
2018-07-13T12:21:46.835Z,94913.92
2018-07-13T12:24:15.924Z,94921.35
2018-07-13T12:26:44.721Z,94917.30
2018-07-13T12:29:15.401Z,94925.81
2018-07-13T12:31:44.238Z,94938.38
2018-07-13T12:34:13.045Z,94940.69
2018-07-13T12:36:41.822Z,94933.81
2018-07-13T12:39:10.667Z,94933.84
2018-07-13T12:41:39.780Z,94924.56
2018-07-13T12:44:08.682Z,94919.51
2018-07-13T12:46:37.831Z,94919.55
2018-07-13T12:49:06.774Z,94924.72
2018-07-13T12:51:35.655Z,94914.35
2018-07-13T12:54:04.466Z,94917.19
2018-07-13T12:56:33.531Z,94914.01
2018-07-13T12:59:02.443Z,94914.06
2018-07-13T13:01:31.281Z,94909.00
2018-07-13T13:04:00.144Z,94911.14
2018-07-13T13:06:28.988Z,94903.19
2018-07-13T13:08:57.826Z,94897.52
2018-07-13T13:11:26.651Z,94890.29
2018-07-13T13:13:55.458Z,94886.94
2018-07-13T13:16:24.327Z,94886.36
2018-07-13T13:18:53.106Z,94881.78
2018-07-13T13:21:21.894Z,94875.44
2018-07-13T13:23:50.796Z,94867.60
2018-07-13T13:26:19.687Z,94856.41
2018-07-13T13:28:48.445Z,94858.59
2018-07-13T13:31:17.289Z,94859.56
2018-07-13T13:33:46.170Z,94855.20
2018-07-13T13:36:15.008Z,94863.96
2018-07-13T13:38:43.827Z,94856.17
2018-07-13T13:41:12.725Z,94852.33
2018-07-13T13:43:41.563Z,94870.99
2018-07-13T13:46:10.468Z,94870.95
2018-07-13T13:48:39.322Z,94867.14
2018-07-13T13:51:08.139Z,94870.87
2018-07-13T13:53:37.080Z,94869.75
2018-07-13T13:56:06.071Z,94883.00
2018-07-13T13:58:34.863Z,94881.16
2018-07-13T14:01:03.678Z,94878.83
2018-07-13T14:03:32.994Z,94885.47
2018-07-13T14:06:01.802Z,94885.52
2018-07-13T14:08:30.623Z,94893.77
2018-07-13T14:10:59.547Z,94884.36
2018-07-13T14:13:28.361Z,94907.77
2018-07-13T14:15:57.406Z,94905.50
2018-07-13T14:18:27.147Z,94910.28
2018-07-13T14:20:55.963Z,94915.52
2018-07-13T14:23:24.760Z,94908.44
2018-07-13T14:25:53.590Z,94911.08
2018-07-13T14:28:22.482Z,94900.41
2018-07-13T14:30:51.684Z,94894.11
2018-07-13T14:33:20.549Z,94880.77
2018-07-13T14:35:49.356Z,94871.09
2018-07-13T14:38:18.132Z,94878.03
2018-07-13T14:40:48.075Z,94877.88
2018-07-13T14:43:16.973Z,94880.36
2018-07-13T14:45:57.885Z,94873.17
2018-07-13T14:48:26.860Z,94876.53
2018-07-13T14:50:55.890Z,94865.48
2018-07-13T14:53:28.802Z,94859.44
2018-07-13T14:55:57.745Z,94854.64
2018-07-13T14:58:27.072Z,94854.94
2018-07-13T15:00:55.967Z,94864.73
2018-07-13T15:03:24.983Z,94855.60
2018-07-13T15:05:54.094Z,94858.80
2018-07-13T15:08:23.276Z,94850.72
2018-07-13T15:10:52.241Z,94852.36
2018-07-13T15:13:21.244Z,94845.58
2018-07-13T15:15:50.227Z,94845.77
2018-07-13T15:18:19.198Z,94843.81
2018-07-13T15:20:48.153Z,94854.71
2018-07-13T15:23:17.041Z,94854.63
2018-07-13T15:25:45.976Z,94858.07
2018-07-13T15:28:15.020Z,94849.92
2018-07-13T15:30:43.834Z,94853.10
2018-07-13T15:33:12.699Z,94855.02
2018-07-13T15:35:41.601Z,94857.27
2018-07-13T15:38:10.409Z,94857.63
2018-07-13T15:40:39.298Z,94861.67
2018-07-13T15:43:08.058Z,94864.52
2018-07-13T15:45:36.890Z,94860.47
2018-07-13T15:48:05.654Z,94861.20
2018-07-13T15:50:34.448Z,94859.72
2018-07-13T15:53:03.763Z,94854.11
2018-07-13T15:55:37.732Z,94864.74
2018-07-13T15:58:06.551Z,94871.24
2018-07-13T16:00:35.838Z,94866.70
2018-07-13T16:03:05.036Z,94867.97
2018-07-13T16:05:34.311Z,94865.70
2018-07-13T16:08:03.275Z,94868.98
2018-07-13T16:10:32.403Z,94855.27
2018-07-13T16:13:01.221Z,94856.37
2018-07-13T16:15:30.108Z,94853.34
2018-07-13T16:17:58.900Z,94861.75
2018-07-13T16:20:27.766Z,94862.00
2018-07-13T16:22:56.613Z,94854.86
2018-07-13T16:25:25.574Z,94853.42
2018-07-13T16:27:54.489Z,94851.33
2018-07-13T16:30:23.243Z,94852.20
2018-07-13T16:32:52.423Z,94846.18
2018-07-13T16:35:21.249Z,94857.03
2018-07-13T16:37:50.906Z,94855.75
2018-07-13T16:40:19.664Z,94855.13
2018-07-13T16:42:48.457Z,94851.34
2018-07-13T16:45:17.292Z,94853.91
2018-07-13T16:47:46.101Z,94857.90
2018-07-13T16:50:14.966Z,94861.06
2018-07-13T16:52:43.733Z,94853.45
2018-07-13T16:55:12.509Z,94853.45
2018-07-13T16:57:41.310Z,94857.92
2018-07-13T17:00:10.146Z,94859.06
2018-07-13T17:02:38.914Z,94859.61
2018-07-13T17:05:07.682Z,94868.72
2018-07-13T17:07:36.463Z,94868.12
2018-07-13T17:10:05.283Z,94874.94
2018-07-13T17:12:34.092Z,94873.12
2018-07-13T17:15:02.908Z,94878.37
2018-07-13T17:17:31.748Z,94877.02
2018-07-13T17:20:00.542Z,94876.47
2018-07-13T17:22:29.402Z,94873.81
2018-07-13T17:24:58.158Z,94882.10
2018-07-13T17:27:27.010Z,94881.07
2018-07-13T17:29:55.803Z,94884.58
2018-07-13T17:32:25.022Z,94883.75
2018-07-13T17:34:53.799Z,94888.66
2018-07-13T17:37:22.562Z,94893.78
2018-07-13T17:39:51.907Z,94904.67
2018-07-13T17:42:20.700Z,94903.57
2018-07-13T17:44:49.575Z,94900.65
2018-07-13T17:47:18.367Z,94907.63
2018-07-13T17:49:48.106Z,94903.16
2018-07-13T17:52:16.959Z,94901.84
2018-07-13T17:54:45.721Z,94907.20
2018-07-13T17:57:20.798Z,94918.99
2018-07-13T17:59:49.685Z,94910.69
2018-07-13T18:02:18.988Z,94912.00
2018-07-13T18:04:47.772Z,94918.92
2018-07-13T18:07:16.607Z,94912.48
2018-07-13T18:09:45.410Z,94921.58
2018-07-13T18:12:14.296Z,94924.89
2018-07-13T18:14:43.112Z,94926.06
2018-07-13T18:17:11.919Z,94927.12
2018-07-13T18:19:40.717Z,94923.66
2018-07-13T18:22:09.861Z,94928.30
2018-07-13T18:24:38.663Z,94940.64
2018-07-13T18:27:07.642Z,94942.00
2018-07-13T18:29:36.440Z,94951.99
2018-07-13T18:32:05.839Z,94948.81
2018-07-13T18:34:38.590Z,94955.52
2018-07-13T18:37:09.189Z,94952.05
2018-07-13T18:39:39.438Z,94956.91
2018-07-13T18:42:11.255Z,94965.80
2018-07-13T18:44:40.065Z,94971.95
2018-07-13T18:47:10.311Z,94969.33
2018-07-13T18:49:40.723Z,94974.43
2018-07-13T18:52:10.336Z,94975.28
2018-07-13T18:54:40.788Z,94986.27
2018-07-13T18:57:10.560Z,94979.79
2018-07-13T18:59:40.737Z,94981.93
2018-07-13T19:02:10.295Z,94977.42
2018-07-13T19:04:40.078Z,94977.70
2018-07-13T19:07:09.211Z,94975.56
2018-07-13T19:09:38.074Z,94983.59
2018-07-13T19:12:09.038Z,94983.14
2018-07-13T19:14:38.042Z,94986.45
2018-07-13T19:17:07.620Z,94986.73
2018-07-13T19:19:38.181Z,94984.91
2018-07-13T19:22:10.315Z,94988.39
2018-07-13T19:24:39.174Z,94987.09
2018-07-13T19:27:08.044Z,94984.69
2018-07-13T19:29:36.813Z,94987.09
2018-07-13T19:32:05.704Z,94984.95
2018-07-13T19:34:34.585Z,94986.56
2018-07-13T19:37:03.451Z,94989.78
2018-07-13T19:39:32.229Z,94991.96
2018-07-13T19:42:01.378Z,94988.21
2018-07-13T19:44:30.190Z,94992.77
2018-07-13T19:46:58.980Z,94994.64
2018-07-13T19:49:28.075Z,94987.42
2018-07-13T19:51:56.938Z,94991.17
2018-07-13T19:54:25.748Z,94993.09
2018-07-13T19:56:54.542Z,94999.84
2018-07-13T19:59:23.313Z,94997.44
2018-07-13T20:01:52.607Z,94990.48
2018-07-13T20:04:21.476Z,94992.92
2018-07-13T20:06:50.271Z,94989.73
2018-07-13T20:09:19.509Z,94994.06
2018-07-13T20:11:48.720Z,94987.88
2018-07-13T20:14:17.488Z,94995.65
2018-07-13T20:16:46.308Z,94999.92
2018-07-13T20:19:15.293Z,95004.18
2018-07-13T20:21:44.120Z,95003.94
2018-07-13T20:24:13.467Z,95006.61
2018-07-13T20:26:42.293Z,95001.54
2018-07-13T20:29:11.596Z,94999.67
2018-07-13T20:31:40.638Z,94999.13
2018-07-13T20:34:09.438Z,95004.73
2018-07-13T20:36:38.225Z,94999.14
2018-07-13T20:39:07.686Z,94998.88
2018-07-13T20:41:36.775Z,95004.47
2018-07-13T20:44:05.597Z,95006.88
2018-07-13T20:46:38.171Z,95011.69
2018-07-13T20:49:07.067Z,95008.77
2018-07-13T20:51:35.870Z,95021.58
2018-07-13T20:54:04.707Z,95014.13
2018-07-13T20:56:33.634Z,95022.13
2018-07-13T20:59:02.557Z,95018.92
2018-07-13T21:01:31.506Z,95015.72
2018-07-13T21:04:00.348Z,95018.91
2018-07-13T21:06:29.133Z,95013.31
2018-07-13T21:08:57.964Z,95013.30
2018-07-13T21:11:26.785Z,95006.64
2018-07-13T21:13:55.598Z,95005.81
2018-07-13T21:16:24.418Z,95002.08
2018-07-13T21:18:53.739Z,95005.02
2018-07-13T21:21:22.573Z,95009.55
2018-07-13T21:23:51.537Z,95014.37
2018-07-13T21:26:20.330Z,95013.84
2018-07-13T21:28:49.247Z,95017.59
2018-07-13T21:31:18.039Z,95014.10
2018-07-13T21:33:46.846Z,95014.89
2018-07-13T21:36:15.646Z,95023.17
2018-07-13T21:38:44.459Z,95023.17
2018-07-13T21:41:13.262Z,95020.48
2018-07-13T21:43:42.097Z,95017.52
2018-07-13T21:46:10.928Z,95015.89
2018-07-13T21:48:39.729Z,95009.98
2018-07-13T21:51:08.514Z,95014.53
2018-07-13T21:53:37.961Z,95013.45
2018-07-13T21:56:06.763Z,95009.17
2018-07-13T21:58:35.562Z,95007.30
2018-07-13T22:01:04.463Z,94995.83
2018-07-13T22:03:33.263Z,95004.89
2018-07-13T22:06:02.192Z,95003.30
2018-07-13T22:08:30.964Z,95005.12
2018-07-13T22:10:59.774Z,94999.78
2018-07-13T22:13:28.596Z,95004.57
2018-07-13T22:15:57.397Z,94998.16
2018-07-13T22:18:26.720Z,95004.27
2018-07-13T22:20:55.736Z,95004.53
2018-07-13T22:23:24.790Z,95008.49
2018-07-13T22:25:54.164Z,95006.63
2018-07-13T22:28:22.948Z,95012.22
2018-07-13T22:30:51.895Z,95012.78
2018-07-13T22:33:20.702Z,95019.15
2018-07-13T22:35:49.541Z,95014.88
2018-07-13T22:38:18.355Z,95012.96
2018-07-13T22:40:47.190Z,95017.55
2018-07-13T22:43:15.995Z,95015.63
2018-07-13T22:45:44.837Z,95015.08
2018-07-13T22:48:13.670Z,95010.55
2018-07-13T22:50:42.502Z,95003.36
2018-07-13T22:53:11.338Z,95003.15
2018-07-13T22:55:40.130Z,94995.69
2018-07-13T22:58:09.049Z,95002.13
2018-07-13T23:00:37.879Z,95007.74
2018-07-13T23:03:07.050Z,95007.98
2018-07-13T23:05:35.854Z,95008.80
2018-07-13T23:08:04.637Z,95006.63
2018-07-13T23:10:33.846Z,95007.70
2018-07-13T23:13:02.699Z,95013.02
2018-07-13T23:15:31.514Z,95014.64
2018-07-13T23:18:00.356Z,95008.76
2018-07-13T23:20:29.234Z,95003.69
2018-07-13T23:22:58.030Z,95005.84
2018-07-13T23:25:26.846Z,95004.22
2018-07-13T23:27:55.599Z,95005.55
2018-07-13T23:30:24.403Z,95007.96
2018-07-13T23:32:53.182Z,95004.77
2018-07-13T23:35:21.958Z,95005.55
2018-07-13T23:37:50.789Z,95002.64
2018-07-13T23:40:19.578Z,95005.31
2018-07-13T23:42:48.332Z,95008.53
2018-07-13T23:45:17.119Z,95004.53
2018-07-13T23:47:45.905Z,95013.32
2018-07-13T23:50:14.646Z,95004.55
2018-07-13T23:52:43.823Z,95008.02
2018-07-13T23:55:12.609Z,94995.19
2018-07-13T23:57:41.447Z,95011.96
